sensor_id;sensor_type;location;lat;lon;timestamp;pressure;altitude;pressure_sealevel;temperature;humidity
7170;BME280;3626;42.656;23.312;2023-03-29T00:00:01;94886.28;;;-1.90;81.10
7170;BME280;3626;42.656;23.312;2023-03-29T00:00:08;94894.69;;;-1.89;80.86
7170;BME280;3626;42.656;23.312;2023-03-29T00:00:19;94887.91;;;-1.89;81.18
7170;BME280;3626;42.656;23.312;2023-03-29T00:00:25;94890.44;;;-1.89;81.02
7170;BME280;3626;42.656;23.312;2023-03-29T00:00:31;94888.72;;;-1.88;80.93
7170;BME280;3626;42.656;23.312;2023-03-29T00:00:40;94891.25;;;-1.88;81.07
7170;BME280;3626;42.656;23.312;2023-03-29T00:00:46;94897.22;;;-1.89;80.92
7170;BME280;3626;42.656;23.312;2023-03-29T00:00:55;94882.94;;;-1.90;81.07
7170;BME280;3626;42.656;23.312;2023-03-29T00:01:04;94886.19;;;-1.88;80.83
7170;BME280;3626;42.656;23.312;2023-03-29T00:01:11;94887.91;;;-1.89;81.11
7170;BME280;3626;42.656;23.312;2023-03-29T00:01:17;94890.44;;;-1.89;80.83
7170;BME280;3626;42.656;23.312;2023-03-29T00:01:23;94895.50;;;-1.89;81.01
7170;BME280;3626;42.656;23.312;2023-03-29T00:01:30;94888.72;;;-1.88;80.82
7170;BME280;3626;42.656;23.312;2023-03-29T00:01:36;94880.22;;;-1.87;81.22
7170;BME280;3626;42.656;23.312;2023-03-29T00:01:46;94887.00;;;-1.88;80.94
7170;BME280;3626;42.656;23.312;2023-03-29T00:01:54;94894.59;;;-1.88;80.97
7170;BME280;3626;42.656;23.312;2023-03-29T00:02:01;94884.47;;;-1.88;80.81
7170;BME280;3626;42.656;23.312;2023-03-29T00:02:07;94886.19;;;-1.88;80.82
7170;BME280;3626;42.656;23.312;2023-03-29T00:02:13;94885.38;;;-1.89;80.61
7170;BME280;3626;42.656;23.312;2023-03-29T00:02:21;94885.38;;;-1.89;80.18
7170;BME280;3626;42.656;23.312;2023-03-29T00:02:34;94886.28;;;-1.90;80.69
7170;BME280;3626;42.656;23.312;2023-03-29T00:02:41;94886.19;;;-1.88;80.72
7170;BME280;3626;42.656;23.312;2023-03-29T00:02:47;94885.38;;;-1.89;80.92
7170;BME280;3626;42.656;23.312;2023-03-29T00:02:54;94884.47;;;-1.88;80.56
7170;BME280;3626;42.656;23.312;2023-03-29T00:03:01;94881.94;;;-1.88;80.54
7170;BME280;3626;42.656;23.312;2023-03-29T00:03:08;94884.47;;;-1.88;80.74
7170;BME280;3626;42.656;23.312;2023-03-29T00:03:14;94891.19;;;-1.87;80.37
7170;BME280;3626;42.656;23.312;2023-03-29T00:03:23;94883.59;;;-1.87;80.40
7170;BME280;3626;42.656;23.312;2023-03-29T00:03:29;94887.81;;;-1.87;80.64
7170;BME280;3626;42.656;23.312;2023-03-29T00:03:35;94876.06;;;-1.88;80.28
7170;BME280;3626;42.656;23.312;2023-03-29T00:03:43;94878.53;;;-1.87;80.38
7170;BME280;3626;42.656;23.312;2023-03-29T00:03:50;94885.28;;;-1.87;80.65
7170;BME280;3626;42.656;23.312;2023-03-29T00:03:56;94887.81;;;-1.87;80.48
7170;BME280;3626;42.656;23.312;2023-03-29T00:04:02;94884.41;;;-1.86;80.53
7170;BME280;3626;42.656;23.312;2023-03-29T00:04:08;94887.81;;;-1.87;80.58
7170;BME280;3626;42.656;23.312;2023-03-29T00:04:14;94890.34;;;-1.87;80.33
7170;BME280;3626;42.656;23.312;2023-03-29T00:04:24;94887.81;;;-1.87;80.53
7170;BME280;3626;42.656;23.312;2023-03-29T00:04:32;94887.81;;;-1.87;80.47
7170;BME280;3626;42.656;23.312;2023-03-29T00:04:38;94883.59;;;-1.87;80.61
7170;BME280;3626;42.656;23.312;2023-03-29T00:04:45;94883.59;;;-1.87;80.51
7170;BME280;3626;42.656;23.312;2023-03-29T00:04:51;94881.94;;;-1.88;80.29
7170;BME280;3626;42.656;23.312;2023-03-29T00:05:01;94886.19;;;-1.88;80.70
7170;BME280;3626;42.656;23.312;2023-03-29T00:05:08;94890.34;;;-1.87;80.67
7170;BME280;3626;42.656;23.312;2023-03-29T00:05:15;94879.41;;;-1.88;80.68
7170;BME280;3626;42.656;23.312;2023-03-29T00:05:22;94874.44;;;-1.89;80.50
7170;BME280;3626;42.656;23.312;2023-03-29T00:05:29;94891.25;;;-1.88;80.26
7170;BME280;3626;42.656;23.312;2023-03-29T00:05:38;94882.84;;;-1.89;80.57
7170;BME280;3626;42.656;23.312;2023-03-29T00:05:45;94887.00;;;-1.88;80.37
7170;BME280;3626;42.656;23.312;2023-03-29T00:05:51;94879.41;;;-1.88;80.17
7170;BME280;3626;42.656;23.312;2023-03-29T00:06:02;94882.84;;;-1.89;80.55
7170;BME280;3626;42.656;23.312;2023-03-29T00:06:08;94886.28;;;-1.90;80.30
7170;BME280;3626;42.656;23.312;2023-03-29T00:06:19;94888.00;;;-1.90;80.62
7170;BME280;3626;42.656;23.312;2023-03-29T00:06:26;94882.84;;;-1.89;80.48
7170;BME280;3626;42.656;23.312;2023-03-29T00:06:35;94882.94;;;-1.90;80.68
7170;BME280;3626;42.656;23.312;2023-03-29T00:06:42;94887.09;;;-1.89;80.62
7170;BME280;3626;42.656;23.312;2023-03-29T00:06:52;94887.91;;;-1.89;80.69
7170;BME280;3626;42.656;23.312;2023-03-29T00:07:01;94883.75;;;-1.90;80.57
7170;BME280;3626;42.656;23.312;2023-03-29T00:07:08;94884.56;;;-1.89;80.53
7170;BME280;3626;42.656;23.312;2023-03-29T00:07:14;94885.47;;;-1.90;80.68
7170;BME280;3626;42.656;23.312;2023-03-29T00:07:20;94885.47;;;-1.90;80.67
7170;BME280;3626;42.656;23.312;2023-03-29T00:07:28;94882.13;;;-1.91;80.48
7170;BME280;3626;42.656;23.312;2023-03-29T00:07:34;94879.59;;;-1.91;80.63
7170;BME280;3626;42.656;23.312;2023-03-29T00:07:41;94879.59;;;-1.91;80.51
7170;BME280;3626;42.656;23.312;2023-03-29T00:07:47;94877.06;;;-1.91;80.43
7170;BME280;3626;42.656;23.312;2023-03-29T00:07:58;94882.13;;;-1.91;80.38
7170;BME280;3626;42.656;23.312;2023-03-29T00:08:08;94891.34;;;-1.90;80.56
7170;BME280;3626;42.656;23.312;2023-03-29T00:08:18;94882.03;;;-1.89;80.44
7170;BME280;3626;42.656;23.312;2023-03-29T00:08:28;94884.56;;;-1.89;80.42
7170;BME280;3626;42.656;23.312;2023-03-29T00:08:35;94880.31;;;-1.89;80.42
7170;BME280;3626;42.656;23.312;2023-03-29T00:08:42;94890.34;;;-1.87;80.32
7170;BME280;3626;42.656;23.312;2023-03-29T00:08:50;94883.66;;;-1.88;80.45
7170;BME280;3626;42.656;23.312;2023-03-29T00:08:59;94884.41;;;-1.86;80.50
7170;BME280;3626;42.656;23.312;2023-03-29T00:09:06;94893.72;;;-1.87;80.36
7170;BME280;3626;42.656;23.312;2023-03-29T00:09:14;94884.41;;;-1.86;80.57
7170;BME280;3626;42.656;23.312;2023-03-29T00:09:20;94880.16;;;-1.86;80.46
7170;BME280;3626;42.656;23.312;2023-03-29T00:09:26;94886.03;;;-1.85;80.50
7170;BME280;3626;42.656;23.312;2023-03-29T00:09:32;94875.91;;;-1.85;80.13
7170;BME280;3626;42.656;23.312;2023-03-29T00:09:41;94880.16;;;-1.86;80.13
7170;BME280;3626;42.656;23.312;2023-03-29T00:09:47;94882.69;;;-1.86;80.10
7170;BME280;3626;42.656;23.312;2023-03-29T00:09:53;94883.50;;;-1.85;80.04
7170;BME280;3626;42.656;23.312;2023-03-29T00:09:59;94886.84;;;-1.85;80.09
7170;BME280;3626;42.656;23.312;2023-03-29T00:10:07;94883.50;;;-1.85;80.14
7170;BME280;3626;42.656;23.312;2023-03-29T00:10:14;94885.13;;;-1.84;80.28
7170;BME280;3626;42.656;23.312;2023-03-29T00:10:20;94886.94;;;-1.86;79.95
7170;BME280;3626;42.656;23.312;2023-03-29T00:10:29;94876.81;;;-1.86;79.89
7170;BME280;3626;42.656;23.312;2023-03-29T00:10:35;94882.69;;;-1.86;79.99
7170;BME280;3626;42.656;23.312;2023-03-29T00:10:41;94891.09;;;-1.85;79.80
7170;BME280;3626;42.656;23.312;2023-03-29T00:10:48;94875.91;;;-1.85;79.59
7170;BME280;3626;42.656;23.312;2023-03-29T00:10:54;94886.03;;;-1.85;79.89
7170;BME280;3626;42.656;23.312;2023-03-29T00:11:01;94879.34;;;-1.86;79.93
7170;BME280;3626;42.656;23.312;2023-03-29T00:11:07;94886.94;;;-1.86;79.86
7170;BME280;3626;42.656;23.312;2023-03-29T00:11:13;94886.13;;;-1.87;80.06
7170;BME280;3626;42.656;23.312;2023-03-29T00:11:22;94882.75;;;-1.87;79.77
7170;BME280;3626;42.656;23.312;2023-03-29T00:11:28;94879.41;;;-1.88;79.87
7170;BME280;3626;42.656;23.312;2023-03-29T00:11:34;94876.88;;;-1.88;79.82
7170;BME280;3626;42.656;23.312;2023-03-29T00:11:40;94884.47;;;-1.88;79.99
7170;BME280;3626;42.656;23.312;2023-03-29T00:11:46;94881.88;;;-1.86;79.88
7170;BME280;3626;42.656;23.312;2023-03-29T00:11:52;94886.19;;;-1.88;79.94
7170;BME280;3626;42.656;23.312;2023-03-29T00:11:59;94892.97;;;-1.89;79.85
7170;BME280;3626;42.656;23.312;2023-03-29T00:12:05;94890.44;;;-1.89;79.95
7170;BME280;3626;42.656;23.312;2023-03-29T00:12:13;94875.25;;;-1.89;80.05
7170;BME280;3626;42.656;23.312;2023-03-29T00:12:19;94878.69;;;-1.90;80.07
7170;BME280;3626;42.656;23.312;2023-03-29T00:12:25;94885.38;;;-1.89;79.80
7170;BME280;3626;42.656;23.312;2023-03-29T00:12:32;94887.09;;;-1.89;79.85
7170;BME280;3626;42.656;23.312;2023-03-29T00:12:39;94884.47;;;-1.88;79.82
7170;BME280;3626;42.656;23.312;2023-03-29T00:12:45;94893.78;;;-1.88;79.66
7170;BME280;3626;42.656;23.312;2023-03-29T00:12:51;94876.06;;;-1.88;79.80
7170;BME280;3626;42.656;23.312;2023-03-29T00:13:00;94888.72;;;-1.88;79.83
7170;BME280;3626;42.656;23.312;2023-03-29T00:13:07;94881.94;;;-1.88;79.69
7170;BME280;3626;42.656;23.312;2023-03-29T00:13:13;94888.66;;;-1.87;79.79
7170;BME280;3626;42.656;23.312;2023-03-29T00:13:19;94890.34;;;-1.87;79.67
7170;BME280;3626;42.656;23.312;2023-03-29T00:13:25;94884.41;;;-1.86;79.72
7170;BME280;3626;42.656;23.312;2023-03-29T00:13:32;94877.69;;;-1.87;79.56
7170;BME280;3626;42.656;23.312;2023-03-29T00:13:38;94889.53;;;-1.88;79.77
7170;BME280;3626;42.656;23.312;2023-03-29T00:13:44;94890.34;;;-1.87;79.78
7170;BME280;3626;42.656;23.312;2023-03-29T00:13:51;94886.19;;;-1.88;79.67
7170;BME280;3626;42.656;23.312;2023-03-29T00:13:57;94889.53;;;-1.88;79.77
7170;BME280;3626;42.656;23.312;2023-03-29T00:14:03;94890.34;;;-1.87;79.84
7170;BME280;3626;42.656;23.312;2023-03-29T00:14:09;94886.19;;;-1.88;79.70
7170;BME280;3626;42.656;23.312;2023-03-29T00:14:15;94892.06;;;-1.88;79.93
7170;BME280;3626;42.656;23.312;2023-03-29T00:14:22;94885.28;;;-1.87;80.10
7170;BME280;3626;42.656;23.312;2023-03-29T00:14:28;94887.00;;;-1.88;79.99
7170;BME280;3626;42.656;23.312;2023-03-29T00:14:36;94883.59;;;-1.87;80.13
7170;BME280;3626;42.656;23.312;2023-03-29T00:14:42;94899.59;;;-1.86;80.05
7170;BME280;3626;42.656;23.312;2023-03-29T00:14:48;94880.16;;;-1.86;79.89
7170;BME280;3626;42.656;23.312;2023-03-29T00:14:54;94856.47;;;-1.85;79.71
7170;BME280;3626;42.656;23.312;2023-03-29T00:15:00;94873.28;;;-1.84;79.47
7170;BME280;3626;42.656;23.312;2023-03-29T00:15:07;94891.09;;;-1.85;79.74
7170;BME280;3626;42.656;23.312;2023-03-29T00:15:15;94880.06;;;-1.84;79.68
7170;BME280;3626;42.656;23.312;2023-03-29T00:15:21;94886.84;;;-1.85;79.48
7170;BME280;3626;42.656;23.312;2023-03-29T00:15:27;94891.00;;;-1.84;79.73
7170;BME280;3626;42.656;23.312;2023-03-29T00:15:33;94887.66;;;-1.84;79.56
7170;BME280;3626;42.656;23.312;2023-03-29T00:15:40;94887.75;;;-1.86;79.86
7170;BME280;3626;42.656;23.312;2023-03-29T00:15:46;94891.09;;;-1.85;79.56
7170;BME280;3626;42.656;23.312;2023-03-29T00:15:52;94885.13;;;-1.84;79.85
7170;BME280;3626;42.656;23.312;2023-03-29T00:15:59;94883.41;;;-1.84;79.68
7170;BME280;3626;42.656;23.312;2023-03-29T00:16:08;94885.03;;;-1.83;79.86
7170;BME280;3626;42.656;23.312;2023-03-29T00:16:14;94883.41;;;-1.84;79.74
7170;BME280;3626;42.656;23.312;2023-03-29T00:16:21;94883.41;;;-1.84;79.75
7170;BME280;3626;42.656;23.312;2023-03-29T00:16:27;94883.41;;;-1.84;79.67
7170;BME280;3626;42.656;23.312;2023-03-29T00:16:33;94882.59;;;-1.84;79.83
7170;BME280;3626;42.656;23.312;2023-03-29T00:16:39;94901.91;;;-1.83;79.89
7170;BME280;3626;42.656;23.312;2023-03-29T00:16:46;94897.78;;;-1.84;79.77
7170;BME280;3626;42.656;23.312;2023-03-29T00:16:52;94891.91;;;-1.85;79.99
7170;BME280;3626;42.656;23.312;2023-03-29T00:16:58;94878.44;;;-1.85;79.70
7170;BME280;3626;42.656;23.312;2023-03-29T00:17:04;94880.88;;;-1.84;80.00
7170;BME280;3626;42.656;23.312;2023-03-29T00:17:10;94879.25;;;-1.85;79.92
7170;BME280;3626;42.656;23.312;2023-03-29T00:17:16;94887.66;;;-1.84;79.79
7170;BME280;3626;42.656;23.312;2023-03-29T00:17:23;94880.97;;;-1.85;79.98
7170;BME280;3626;42.656;23.312;2023-03-29T00:17:29;94883.59;;;-1.87;80.22
7170;BME280;3626;42.656;23.312;2023-03-29T00:17:37;94880.16;;;-1.86;79.76
7170;BME280;3626;42.656;23.312;2023-03-29T00:17:46;94877.69;;;-1.87;79.85
7170;BME280;3626;42.656;23.312;2023-03-29T00:17:52;94884.41;;;-1.86;79.62
7170;BME280;3626;42.656;23.312;2023-03-29T00:17:58;94877.69;;;-1.87;80.06
7170;BME280;3626;42.656;23.312;2023-03-29T00:18:04;94879.34;;;-1.86;79.88
7170;BME280;3626;42.656;23.312;2023-03-29T00:18:10;94879.34;;;-1.86;79.98
7170;BME280;3626;42.656;23.312;2023-03-29T00:18:16;94884.41;;;-1.86;79.95
7170;BME280;3626;42.656;23.312;2023-03-29T00:18:22;94884.41;;;-1.86;79.96
7170;BME280;3626;42.656;23.312;2023-03-29T00:18:29;94886.03;;;-1.85;80.17
7170;BME280;3626;42.656;23.312;2023-03-29T00:18:35;94880.97;;;-1.85;79.89
7170;BME280;3626;42.656;23.312;2023-03-29T00:18:41;94884.41;;;-1.86;79.89
7170;BME280;3626;42.656;23.312;2023-03-29T00:18:47;94883.50;;;-1.85;80.37
7170;BME280;3626;42.656;23.312;2023-03-29T00:18:53;94890.28;;;-1.86;79.90
7170;BME280;3626;42.656;23.312;2023-03-29T00:18:59;94892.00;;;-1.86;79.96
7170;BME280;3626;42.656;23.312;2023-03-29T00:19:09;94886.13;;;-1.87;80.10
7170;BME280;3626;42.656;23.312;2023-03-29T00:19:15;94885.22;;;-1.86;79.85
7170;BME280;3626;42.656;23.312;2023-03-29T00:19:22;94879.34;;;-1.86;79.83
7170;BME280;3626;42.656;23.312;2023-03-29T00:19:28;94872.63;;;-1.87;79.81
7170;BME280;3626;42.656;23.312;2023-03-29T00:19:42;94879.41;;;-1.88;79.61
7170;BME280;3626;42.656;23.312;2023-03-29T00:19:48;94882.75;;;-1.87;79.55
7170;BME280;3626;42.656;23.312;2023-03-29T00:19:54;94876.00;;;-1.87;79.56
7170;BME280;3626;42.656;23.312;2023-03-29T00:20:00;94887.00;;;-1.88;79.47
7170;BME280;3626;42.656;23.312;2023-03-29T00:20:07;94871.00;;;-1.88;79.52
7170;BME280;3626;42.656;23.312;2023-03-29T00:20:17;94872.63;;;-1.87;79.83
7170;BME280;3626;42.656;23.312;2023-03-29T00:20:23;94876.81;;;-1.86;79.17
7170;BME280;3626;42.656;23.312;2023-03-29T00:20:29;94863.34;;;-1.87;79.33
7170;BME280;3626;42.656;23.312;2023-03-29T00:20:35;94874.28;;;-1.86;79.16
7170;BME280;3626;42.656;23.312;2023-03-29T00:20:41;94880.97;;;-1.85;79.02
7170;BME280;3626;42.656;23.312;2023-03-29T00:20:53;94888.56;;;-1.85;78.98
7170;BME280;3626;42.656;23.312;2023-03-29T00:21:00;94889.47;;;-1.86;78.92
7170;BME280;3626;42.656;23.312;2023-03-29T00:21:08;94889.47;;;-1.86;79.17
7170;BME280;3626;42.656;23.312;2023-03-29T00:21:14;94890.34;;;-1.87;79.22
7170;BME280;3626;42.656;23.312;2023-03-29T00:21:20;94885.28;;;-1.87;79.24
7170;BME280;3626;42.656;23.312;2023-03-29T00:21:26;94877.69;;;-1.87;79.17
7170;BME280;3626;42.656;23.312;2023-03-29T00:21:35;94892.00;;;-1.86;79.06
7170;BME280;3626;42.656;23.312;2023-03-29T00:21:41;94887.81;;;-1.87;78.93
7170;BME280;3626;42.656;23.312;2023-03-29T00:21:47;94884.41;;;-1.86;78.90
7170;BME280;3626;42.656;23.312;2023-03-29T00:21:53;94887.75;;;-1.86;79.22
7170;BME280;3626;42.656;23.312;2023-03-29T00:21:59;94884.41;;;-1.86;79.15
7170;BME280;3626;42.656;23.312;2023-03-29T00:22:05;94885.22;;;-1.86;79.16
7170;BME280;3626;42.656;23.312;2023-03-29T00:22:12;94886.03;;;-1.85;79.21
7170;BME280;3626;42.656;23.312;2023-03-29T00:22:18;94888.56;;;-1.85;79.08
7170;BME280;3626;42.656;23.312;2023-03-29T00:22:24;94891.09;;;-1.85;79.16
7170;BME280;3626;42.656;23.312;2023-03-29T00:22:30;94891.91;;;-1.85;79.14
7170;BME280;3626;42.656;23.312;2023-03-29T00:22:37;94885.22;;;-1.86;79.18
7170;BME280;3626;42.656;23.312;2023-03-29T00:22:44;94881.78;;;-1.85;79.09
7170;BME280;3626;42.656;23.312;2023-03-29T00:22:51;94884.31;;;-1.85;79.12
7170;BME280;3626;42.656;23.312;2023-03-29T00:22:57;94880.16;;;-1.86;79.26
7170;BME280;3626;42.656;23.312;2023-03-29T00:23:03;94884.31;;;-1.85;79.18
7170;BME280;3626;42.656;23.312;2023-03-29T00:23:09;94884.31;;;-1.85;78.96
7170;BME280;3626;42.656;23.312;2023-03-29T00:23:16;94886.84;;;-1.85;79.06
7170;BME280;3626;42.656;23.312;2023-03-29T00:23:24;94886.03;;;-1.85;79.05
7170;BME280;3626;42.656;23.312;2023-03-29T00:23:30;94888.56;;;-1.85;79.17
7170;BME280;3626;42.656;23.312;2023-03-29T00:23:36;94891.09;;;-1.85;79.06
7170;BME280;3626;42.656;23.312;2023-03-29T00:23:43;94892.81;;;-1.86;78.80
7170;BME280;3626;42.656;23.312;2023-03-29T00:23:49;94890.28;;;-1.86;79.07
7170;BME280;3626;42.656;23.312;2023-03-29T00:23:55;94895.34;;;-1.86;79.11
7170;BME280;3626;42.656;23.312;2023-03-29T00:24:01;94894.53;;;-1.86;78.99
7170;BME280;3626;42.656;23.312;2023-03-29T00:24:07;94884.41;;;-1.86;79.24
7170;BME280;3626;42.656;23.312;2023-03-29T00:24:13;94887.75;;;-1.86;79.11
7170;BME280;3626;42.656;23.312;2023-03-29T00:24:19;94891.09;;;-1.85;79.32
7170;BME280;3626;42.656;23.312;2023-03-29T00:24:26;94886.94;;;-1.86;79.21
7170;BME280;3626;42.656;23.312;2023-03-29T00:24:32;94884.41;;;-1.86;79.14
7170;BME280;3626;42.656;23.312;2023-03-29T00:24:38;94882.69;;;-1.86;79.06
7170;BME280;3626;42.656;23.312;2023-03-29T00:24:47;94880.97;;;-1.85;79.17
7170;BME280;3626;42.656;23.312;2023-03-29T00:24:53;94885.22;;;-1.86;79.02
7170;BME280;3626;42.656;23.312;2023-03-29T00:25:00;94886.03;;;-1.85;79.02
7170;BME280;3626;42.656;23.312;2023-03-29T00:25:06;94888.56;;;-1.85;78.73
7170;BME280;3626;42.656;23.312;2023-03-29T00:25:13;94884.41;;;-1.86;78.93
7170;BME280;3626;42.656;23.312;2023-03-29T00:25:19;94895.34;;;-1.86;78.85
7170;BME280;3626;42.656;23.312;2023-03-29T00:25:25;94889.47;;;-1.86;78.88
7170;BME280;3626;42.656;23.312;2023-03-29T00:25:31;94886.13;;;-1.87;78.82
7170;BME280;3626;42.656;23.312;2023-03-29T00:25:42;94889.38;;;-1.85;78.83
7170;BME280;3626;42.656;23.312;2023-03-29T00:25:48;94878.44;;;-1.85;78.86
7170;BME280;3626;42.656;23.312;2023-03-29T00:25:55;94876.72;;;-1.85;78.80
7170;BME280;3626;42.656;23.312;2023-03-29T00:26:01;94881.88;;;-1.86;78.76
7170;BME280;3626;42.656;23.312;2023-03-29T00:26:07;94881.06;;;-1.87;78.97
7170;BME280;3626;42.656;23.312;2023-03-29T00:26:17;94885.22;;;-1.86;78.71
7170;BME280;3626;42.656;23.312;2023-03-29T00:26:23;94888.66;;;-1.87;78.75
7170;BME280;3626;42.656;23.312;2023-03-29T00:26:29;94881.88;;;-1.86;78.87
7170;BME280;3626;42.656;23.312;2023-03-29T00:26:35;94882.75;;;-1.87;78.94
7170;BME280;3626;42.656;23.312;2023-03-29T00:26:41;94892.06;;;-1.88;78.74
7170;BME280;3626;42.656;23.312;2023-03-29T00:26:47;94881.13;;;-1.88;78.68
7170;BME280;3626;42.656;23.312;2023-03-29T00:26:53;94887.81;;;-1.87;78.95
7170;BME280;3626;42.656;23.312;2023-03-29T00:26:59;94887.00;;;-1.88;78.77
7170;BME280;3626;42.656;23.312;2023-03-29T00:27:06;94880.22;;;-1.87;78.83
7170;BME280;3626;42.656;23.312;2023-03-29T00:27:15;94879.41;;;-1.88;79.02
7170;BME280;3626;42.656;23.312;2023-03-29T00:27:21;94887.00;;;-1.88;78.67
7170;BME280;3626;42.656;23.312;2023-03-29T00:27:27;94889.53;;;-1.88;79.03
7170;BME280;3626;42.656;23.312;2023-03-29T00:27:33;94886.19;;;-1.88;78.94
7170;BME280;3626;42.656;23.312;2023-03-29T00:27:40;94884.56;;;-1.89;78.72
7170;BME280;3626;42.656;23.312;2023-03-29T00:27:46;94881.13;;;-1.88;78.71
7170;BME280;3626;42.656;23.312;2023-03-29T00:27:52;94882.94;;;-1.90;79.00
7170;BME280;3626;42.656;23.312;2023-03-29T00:28:01;94878.69;;;-1.90;78.77
7170;BME280;3626;42.656;23.312;2023-03-29T00:28:07;94875.34;;;-1.90;78.77
7170;BME280;3626;42.656;23.312;2023-03-29T00:28:13;94888.81;;;-1.90;78.81
7170;BME280;3626;42.656;23.312;2023-03-29T00:28:20;94887.91;;;-1.89;78.61
7170;BME280;3626;42.656;23.312;2023-03-29T00:28:26;94887.91;;;-1.89;79.14
7170;BME280;3626;42.656;23.312;2023-03-29T00:28:32;94894.69;;;-1.89;78.83
7170;BME280;3626;42.656;23.312;2023-03-29T00:28:38;94889.63;;;-1.89;78.78
7170;BME280;3626;42.656;23.312;2023-03-29T00:28:44;94887.81;;;-1.87;78.75
7170;BME280;3626;42.656;23.312;2023-03-29T00:28:51;94887.00;;;-1.88;79.00
7170;BME280;3626;42.656;23.312;2023-03-29T00:28:57;94879.41;;;-1.88;78.83
7170;BME280;3626;42.656;23.312;2023-03-29T00:29:03;94893.06;;;-1.90;78.39
7170;BME280;3626;42.656;23.312;2023-03-29T00:29:09;94880.31;;;-1.89;78.46
7170;BME280;3626;42.656;23.312;2023-03-29T00:29:15;94881.13;;;-1.88;78.62
7170;BME280;3626;42.656;23.312;2023-03-29T00:29:21;94885.38;;;-1.89;78.38
7170;BME280;3626;42.656;23.312;2023-03-29T00:29:27;94891.34;;;-1.90;78.57
7170;BME280;3626;42.656;23.312;2023-03-29T00:29:33;94882.03;;;-1.89;78.69
7170;BME280;3626;42.656;23.312;2023-03-29T00:29:41;94881.22;;;-1.90;78.44
7170;BME280;3626;42.656;23.312;2023-03-29T00:29:47;94889.63;;;-1.89;78.65
7170;BME280;3626;42.656;23.312;2023-03-29T00:29:53;94892.16;;;-1.89;78.38
7170;BME280;3626;42.656;23.312;2023-03-29T00:29:59;94888.88;;;-1.91;78.65
7170;BME280;3626;42.656;23.312;2023-03-29T00:30:08;94882.94;;;-1.90;78.85
7170;BME280;3626;42.656;23.312;2023-03-29T00:30:15;94883.81;;;-1.91;78.57
7170;BME280;3626;42.656;23.312;2023-03-29T00:30:21;94873.63;;;-1.90;78.33
7170;BME280;3626;42.656;23.312;2023-03-29T00:30:27;94874.53;;;-1.91;78.59
7170;BME280;3626;42.656;23.312;2023-03-29T00:30:33;94881.28;;;-1.91;78.33
7170;BME280;3626;42.656;23.312;2023-03-29T00:30:39;94880.41;;;-1.90;78.32
7170;BME280;3626;42.656;23.312;2023-03-29T00:30:45;94883.81;;;-1.91;78.09
7170;BME280;3626;42.656;23.312;2023-03-29T00:30:52;94889.63;;;-1.89;78.10
7170;BME280;3626;42.656;23.312;2023-03-29T00:31:05;94879.50;;;-1.89;78.26
7170;BME280;3626;42.656;23.312;2023-03-29T00:31:16;94877.06;;;-1.91;78.22
7170;BME280;3626;42.656;23.312;2023-03-29T00:31:23;94885.47;;;-1.90;78.25
7170;BME280;3626;42.656;23.312;2023-03-29T00:31:29;94880.31;;;-1.89;77.96
7170;BME280;3626;42.656;23.312;2023-03-29T00:31:35;94882.84;;;-1.89;78.30
7170;BME280;3626;42.656;23.312;2023-03-29T00:31:41;94880.41;;;-1.90;78.11
7170;BME280;3626;42.656;23.312;2023-03-29T00:31:48;94885.47;;;-1.90;78.16
7170;BME280;3626;42.656;23.312;2023-03-29T00:31:58;94877.88;;;-1.90;78.16
7170;BME280;3626;42.656;23.312;2023-03-29T00:32:04;94879.50;;;-1.89;78.06
7170;BME280;3626;42.656;23.312;2023-03-29T00:32:11;94877.88;;;-1.90;78.09
7170;BME280;3626;42.656;23.312;2023-03-29T00:32:17;94883.66;;;-1.88;78.02
7170;BME280;3626;42.656;23.312;2023-03-29T00:32:24;94878.59;;;-1.88;78.17
7170;BME280;3626;42.656;23.312;2023-03-29T00:32:31;94878.59;;;-1.88;78.13
7170;BME280;3626;42.656;23.312;2023-03-29T00:32:37;94880.31;;;-1.89;78.02
7170;BME280;3626;42.656;23.312;2023-03-29T00:32:43;94884.47;;;-1.88;77.90
7170;BME280;3626;42.656;23.312;2023-03-29T00:32:52;94878.59;;;-1.88;78.15
7170;BME280;3626;42.656;23.312;2023-03-29T00:32:58;94880.22;;;-1.87;77.95
7170;BME280;3626;42.656;23.312;2023-03-29T00:33:04;94882.75;;;-1.87;77.81
7170;BME280;3626;42.656;23.312;2023-03-29T00:33:10;94882.75;;;-1.87;77.84
7170;BME280;3626;42.656;23.312;2023-03-29T00:33:17;94877.69;;;-1.87;78.04
7170;BME280;3626;42.656;23.312;2023-03-29T00:33:25;94883.66;;;-1.88;77.78
7170;BME280;3626;42.656;23.312;2023-03-29T00:33:32;94881.13;;;-1.88;77.76
7170;BME280;3626;42.656;23.312;2023-03-29T00:33:39;94885.38;;;-1.89;77.67
7170;BME280;3626;42.656;23.312;2023-03-29T00:33:45;94879.50;;;-1.89;77.79
7170;BME280;3626;42.656;23.312;2023-03-29T00:33:52;94879.50;;;-1.89;77.86
7170;BME280;3626;42.656;23.312;2023-03-29T00:33:58;94877.88;;;-1.90;77.89
7170;BME280;3626;42.656;23.312;2023-03-29T00:34:04;94880.31;;;-1.89;77.52
7170;BME280;3626;42.656;23.312;2023-03-29T00:34:10;94879.50;;;-1.89;77.64
7170;BME280;3626;42.656;23.312;2023-03-29T00:34:19;94877.78;;;-1.89;77.71
7170;BME280;3626;42.656;23.312;2023-03-29T00:34:26;94884.56;;;-1.89;77.65
7170;BME280;3626;42.656;23.312;2023-03-29T00:34:36;94880.31;;;-1.89;77.76
7170;BME280;3626;42.656;23.312;2023-03-29T00:34:44;94880.41;;;-1.90;77.65
7170;BME280;3626;42.656;23.312;2023-03-29T00:34:51;94884.66;;;-1.91;77.87
7170;BME280;3626;42.656;23.312;2023-03-29T00:34:58;94879.59;;;-1.91;77.76
7170;BME280;3626;42.656;23.312;2023-03-29T00:35:06;94881.38;;;-1.93;77.74
7170;BME280;3626;42.656;23.312;2023-03-29T00:35:12;94883.00;;;-1.92;77.74
7170;BME280;3626;42.656;23.312;2023-03-29T00:35:18;94875.41;;;-1.92;77.68
7170;BME280;3626;42.656;23.312;2023-03-29T00:35:24;94878.84;;;-1.93;77.52
7170;BME280;3626;42.656;23.312;2023-03-29T00:35:33;94886.34;;;-1.91;77.65
7170;BME280;3626;42.656;23.312;2023-03-29T00:35:39;94884.66;;;-1.91;77.53
7170;BME280;3626;42.656;23.312;2023-03-29T00:35:47;94879.66;;;-1.92;77.69
7170;BME280;3626;42.656;23.312;2023-03-29T00:35:53;94876.22;;;-1.91;77.86
7170;BME280;3626;42.656;23.312;2023-03-29T00:35:59;94869.56;;;-1.92;77.77
7170;BME280;3626;42.656;23.312;2023-03-29T00:36:07;94875.41;;;-1.92;77.72
7170;BME280;3626;42.656;23.312;2023-03-29T00:36:13;94880.47;;;-1.92;77.56
7170;BME280;3626;42.656;23.312;2023-03-29T00:36:20;94881.28;;;-1.91;77.73
7170;BME280;3626;42.656;23.312;2023-03-29T00:36:27;94888.06;;;-1.92;77.59
7170;BME280;3626;42.656;23.312;2023-03-29T00:36:33;94886.34;;;-1.91;77.85
7170;BME280;3626;42.656;23.312;2023-03-29T00:36:39;94883.00;;;-1.92;77.44
7170;BME280;3626;42.656;23.312;2023-03-29T00:36:46;94885.53;;;-1.92;77.39
7170;BME280;3626;42.656;23.312;2023-03-29T00:36:55;94877.94;;;-1.92;77.38